sensor_id;sensor_type;location;lat;lon;timestamp;pressure;altitude;pressure_sealevel;temperature;humidity
21706;BME280;11014;53.076;18.208;2023-07-28T00:00:43;100234.97;;;23.23;40.42
21706;BME280;11014;53.076;18.208;2023-07-28T00:03:34;100232.69;;;23.25;40.56
21706;BME280;11014;53.076;18.208;2023-07-28T00:06:03;100224.47;;;23.25;40.54
21706;BME280;11014;53.076;18.208;2023-07-28T00:08:35;100228.84;;;23.26;40.50
21706;BME280;11014;53.076;18.208;2023-07-28T00:11:08;100220.97;;;23.25;40.60
21706;BME280;11014;53.076;18.208;2023-07-28T00:13:38;100220.78;;;23.21;40.58
21706;BME280;11014;53.076;18.208;2023-07-28T00:16:13;100223.06;;;23.19;40.91
21706;BME280;11014;53.076;18.208;2023-07-28T00:18:46;100219.81;;;23.17;40.74
21706;BME280;11014;53.076;18.208;2023-07-28T00:21:15;100213.38;;;23.13;41.19
21706;BME280;11014;53.076;18.208;2023-07-28T00:23:44;100213.88;;;23.07;40.98
21706;BME280;11014;53.076;18.208;2023-07-28T00:26:14;100212.56;;;23.04;41.04
21706;BME280;11014;53.076;18.208;2023-07-28T00:28:43;100219.97;;;23.03;41.39
21706;BME280;11014;53.076;18.208;2023-07-28T00:32:16;100217.09;;;22.91;42.43
21706;BME280;11014;53.076;18.208;2023-07-28T00:34:46;100215.47;;;22.82;42.31
21706;BME280;11014;53.076;18.208;2023-07-28T00:37:14;100220.00;;;22.78;42.37
21706;BME280;11014;53.076;18.208;2023-07-28T00:39:46;100223.03;;;22.76;42.38
21706;BME280;11014;53.076;18.208;2023-07-28T00:42:15;100223.19;;;22.71;43.16
21706;BME280;11014;53.076;18.208;2023-07-28T00:44:45;100224.28;;;22.62;43.79
21706;BME280;11014;53.076;18.208;2023-07-28T00:47:15;100223.00;;;22.59;43.66
21706;BME280;11014;53.076;18.208;2023-07-28T00:49:43;100218.47;;;22.55;43.89
21706;BME280;11014;53.076;18.208;2023-07-28T00:52:12;100217.66;;;22.54;44.06
21706;BME280;11014;53.076;18.208;2023-07-28T00:54:40;100211.41;;;22.54;43.85
21706;BME280;11014;53.076;18.208;2023-07-28T00:57:09;100209.78;;;22.53;43.81
21706;BME280;11014;53.076;18.208;2023-07-28T00:59:40;100200.44;;;22.54;43.89
21706;BME280;11014;53.076;18.208;2023-07-28T01:02:09;100209.78;;;22.53;44.72
21706;BME280;11014;53.076;18.208;2023-07-28T01:04:37;100201.56;;;22.53;44.23
21706;BME280;11014;53.076;18.208;2023-07-28T01:07:09;100190.63;;;22.53;44.46
21706;BME280;11014;53.076;18.208;2023-07-28T01:10:01;100194.00;;;22.50;44.83
21706;BME280;11014;53.076;18.208;2023-07-28T01:12:30;100179.03;;;22.47;45.18
21706;BME280;11014;53.076;18.208;2023-07-28T01:14:58;100179.34;;;22.46;45.14
21706;BME280;11014;53.076;18.208;2023-07-28T01:17:27;100172.59;;;22.43;44.90
21706;BME280;11014;53.076;18.208;2023-07-28T01:19:56;100173.38;;;22.43;44.95
21706;BME280;11014;53.076;18.208;2023-07-28T01:25:47;100179.97;;;22.42;45.54
21706;BME280;11014;53.076;18.208;2023-07-28T01:27:46;100176.44;;;22.42;45.24
21706;BME280;11014;53.076;18.208;2023-07-28T01:30:20;100174.81;;;22.41;45.53
21706;BME280;11014;53.076;18.208;2023-07-28T01:32:49;100171.25;;;22.40;45.51
21706;BME280;11014;53.076;18.208;2023-07-28T01:35:18;100177.88;;;22.39;46.29
21706;BME280;11014;53.076;18.208;2023-07-28T01:37:46;100165.13;;;22.35;45.78
21706;BME280;11014;53.076;18.208;2023-07-28T01:40:20;100162.72;;;22.33;45.73
21706;BME280;11014;53.076;18.208;2023-07-28T01:42:48;100161.00;;;22.37;45.78
21706;BME280;11014;53.076;18.208;2023-07-28T01:45:17;100157.44;;;22.37;46.25
21706;BME280;11014;53.076;18.208;2023-07-28T01:47:45;100157.44;;;22.37;46.27
21706;BME280;11014;53.076;18.208;2023-07-28T01:50:14;100157.44;;;22.37;46.51
21706;BME280;11014;53.076;18.208;2023-07-28T01:52:42;100158.25;;;22.37;46.05
21706;BME280;11014;53.076;18.208;2023-07-28T01:55:10;100149.22;;;22.37;46.02
21706;BME280;11014;53.076;18.208;2023-07-28T01:57:39;100155.00;;;22.35;46.39
21706;BME280;11014;53.076;18.208;2023-07-28T02:00:09;100160.81;;;22.34;46.65
21706;BME280;11014;53.076;18.208;2023-07-28T02:02:40;100141.19;;;22.32;46.42
21706;BME280;11014;53.076;18.208;2023-07-28T02:05:09;100145.50;;;22.33;46.53
21706;BME280;11014;53.076;18.208;2023-07-28T02:07:37;100139.22;;;22.32;47.25
21706;BME280;11014;53.076;18.208;2023-07-28T02:10:06;100137.78;;;22.26;48.14
21706;BME280;11014;53.076;18.208;2023-07-28T02:12:34;100131.03;;;22.24;47.62
21706;BME280;11014;53.076;18.208;2023-07-28T02:15:03;100131.81;;;22.24;47.57
21706;BME280;11014;53.076;18.208;2023-07-28T02:17:31;100121.50;;;22.21;47.87
21706;BME280;11014;53.076;18.208;2023-07-28T02:20:01;100121.84;;;22.20;47.79
21706;BME280;11014;53.076;18.208;2023-07-28T02:22:31;100120.22;;;22.19;48.23
21706;BME280;11014;53.076;18.208;2023-07-28T02:25:00;100128.75;;;22.17;47.69
21706;BME280;11014;53.076;18.208;2023-07-28T02:27:30;100111.72;;;22.20;47.39
21706;BME280;11014;53.076;18.208;2023-07-28T02:29:58;100112.19;;;22.22;48.16
21706;BME280;11014;53.076;18.208;2023-07-28T02:32:30;100106.72;;;22.22;47.70
21706;BME280;11014;53.076;18.208;2023-07-28T02:35:01;100116.03;;;22.21;48.23
21706;BME280;11014;53.076;18.208;2023-07-28T02:37:30;100127.63;;;22.18;48.62
21706;BME280;11014;53.076;18.208;2023-07-28T02:40:00;100121.50;;;22.13;48.64
21706;BME280;11014;53.076;18.208;2023-07-28T02:42:31;100129.72;;;22.13;48.65
21706;BME280;11014;53.076;18.208;2023-07-28T02:45:03;100123.44;;;22.12;48.48
21706;BME280;11014;53.076;18.208;2023-07-28T02:47:31;100121.50;;;22.13;48.36
21706;BME280;11014;53.076;18.208;2023-07-28T02:50:00;100117.97;;;22.12;48.27
21706;BME280;11014;53.076;18.208;2023-07-28T02:52:30;100115.38;;;22.16;48.24
21706;BME280;11014;53.076;18.208;2023-07-28T02:55:00;100113.97;;;22.18;48.98
21706;BME280;11014;53.076;18.208;2023-07-28T02:57:29;100113.44;;;22.16;49.03
21706;BME280;11014;53.076;18.208;2023-07-28T02:59:58;100107.97;;;22.16;48.66
21706;BME280;11014;53.076;18.208;2023-07-28T03:02:28;100113.97;;;22.18;48.61
21706;BME280;11014;53.076;18.208;2023-07-28T03:04:58;100115.06;;;22.17;49.22
21706;BME280;11014;53.076;18.208;2023-07-28T03:07:46;100120.84;;;22.16;48.98
21706;BME280;11014;53.076;18.208;2023-07-28T03:10:15;100108.63;;;22.13;49.62
21706;BME280;11014;53.076;18.208;2023-07-28T03:12:47;100101.72;;;22.07;50.96
21706;BME280;11014;53.076;18.208;2023-07-28T03:15:16;100102.50;;;21.99;51.56
21706;BME280;11014;53.076;18.208;2023-07-28T03:17:45;100103.63;;;21.98;50.48
21706;BME280;11014;53.076;18.208;2023-07-28T03:20:14;100103.63;;;21.98;50.31
21706;BME280;11014;53.076;18.208;2023-07-28T03:22:45;100094.13;;;22.04;50.12
21706;BME280;11014;53.076;18.208;2023-07-28T03:25:14;100101.06;;;22.10;50.17
21706;BME280;11014;53.076;18.208;2023-07-28T03:27:42;100093.00;;;22.14;50.12
21706;BME280;11014;53.076;18.208;2023-07-28T03:34:29;100091.91;;;22.23;49.74
21706;BME280;11014;53.076;18.208;2023-07-28T03:37:04;100084.19;;;22.25;49.58
21706;BME280;11014;53.076;18.208;2023-07-28T03:39:34;100096.13;;;22.29;49.55
21706;BME280;11014;53.076;18.208;2023-07-28T03:42:02;100088.38;;;22.31;49.60
21706;BME280;11014;53.076;18.208;2023-07-28T03:44:34;100095.44;;;22.32;49.77
21706;BME280;11014;53.076;18.208;2023-07-28T03:47:02;100089.34;;;22.35;49.64
21706;BME280;11014;53.076;18.208;2023-07-28T03:49:32;100093.22;;;22.34;50.07
21706;BME280;11014;53.076;18.208;2023-07-28T03:52:01;100089.34;;;22.35;49.83
21706;BME280;11014;53.076;18.208;2023-07-28T03:54:52;100083.38;;;22.33;49.99
21706;BME280;11014;53.076;18.208;2023-07-28T03:57:23;100075.19;;;22.33;49.86
21706;BME280;11014;53.076;18.208;2023-07-28T03:59:52;100079.84;;;22.33;49.74
21706;BME280;11014;53.076;18.208;2023-07-28T04:02:20;100081.28;;;22.30;50.10
21706;BME280;11014;53.076;18.208;2023-07-28T04:04:56;100076.63;;;22.31;50.16
21706;BME280;11014;53.076;18.208;2023-07-28T04:07:25;100076.63;;;22.31;50.03
21706;BME280;11014;53.076;18.208;2023-07-28T04:09:54;100075.19;;;22.33;50.25
21706;BME280;11014;53.076;18.208;2023-07-28T04:12:23;100071.16;;;22.31;50.65
21706;BME280;11014;53.076;18.208;2023-07-28T04:14:51;100071.63;;;22.24;50.92
21706;BME280;11014;53.076;18.208;2023-07-28T04:17:25;100069.53;;;22.21;51.42
21706;BME280;11014;53.076;18.208;2023-07-28T04:19:55;100067.94;;;22.20;50.88
21706;BME280;11014;53.076;18.208;2023-07-28T04:22:23;100061.97;;;22.18;51.20
21706;BME280;11014;53.076;18.208;2023-07-28T04:26:01;100065.84;;;22.17;51.67
21706;BME280;11014;53.076;18.208;2023-07-28T04:29:19;100064.56;;;22.15;51.99
21706;BME280;11014;53.076;18.208;2023-07-28T04:32:45;100063.25;;;22.12;52.27
21706;BME280;11014;53.076;18.208;2023-07-28T04:35:18;100063.25;;;22.12;52.54
21706;BME280;11014;53.076;18.208;2023-07-28T04:38:14;100057.16;;;22.15;52.56
21706;BME280;11014;53.076;18.208;2023-07-28T04:40:55;100055.53;;;22.14;52.90
21706;BME280;11014;53.076;18.208;2023-07-28T04:43:36;100056.16;;;22.11;53.17
21706;BME280;11014;53.076;18.208;2023-07-28T04:46:05;100051.97;;;22.05;53.61
21706;BME280;11014;53.076;18.208;2023-07-28T04:48:34;100058.44;;;22.09;53.24
21706;BME280;11014;53.076;18.208;2023-07-28T04:51:06;100055.22;;;22.07;54.13
21706;BME280;11014;53.076;18.208;2023-07-28T04:53:54;100052.97;;;22.09;53.23
21706;BME280;11014;53.076;18.208;2023-07-28T04:56:36;100047.50;;;22.09;53.88
21706;BME280;11014;53.076;18.208;2023-07-28T05:00:10;100049.75;;;22.07;53.64
21706;BME280;11014;53.076;18.208;2023-07-28T05:02:39;100045.22;;;22.11;53.42
21706;BME280;11014;53.076;18.208;2023-07-28T05:05:08;100046.84;;;22.12;54.05
21706;BME280;11014;53.076;18.208;2023-07-28T05:07:37;100038.47;;;22.09;54.80
21706;BME280;11014;53.076;18.208;2023-07-28T05:10:05;100042.00;;;22.09;54.40
21706;BME280;11014;53.076;18.208;2023-07-28T05:12:35;100031.06;;;22.09;54.28
21706;BME280;11014;53.076;18.208;2023-07-28T05:15:14;100030.44;;;22.12;54.37
21706;BME280;11014;53.076;18.208;2023-07-28T05:17:44;100037.50;;;22.13;54.83
21706;BME280;11014;53.076;18.208;2023-07-28T05:23:38;100036.53;;;22.09;55.18
21706;BME280;11014;53.076;18.208;2023-07-28T05:26:07;100035.44;;;22.10;55.34
21706;BME280;11014;53.076;18.208;2023-07-28T05:28:36;100037.03;;;22.11;55.53
21706;BME280;11014;53.076;18.208;2023-07-28T05:31:05;100037.50;;;22.13;55.35
21706;BME280;11014;53.076;18.208;2023-07-28T05:33:34;100038.78;;;22.16;55.03
21706;BME280;11014;53.076;18.208;2023-07-28T05:36:04;100041.69;;;22.19;55.02
21706;BME280;11014;53.076;18.208;2023-07-28T05:38:34;100034.78;;;22.22;56.53
21706;BME280;11014;53.076;18.208;2023-07-28T05:41:02;100029.31;;;22.22;55.39
21706;BME280;11014;53.076;18.208;2023-07-28T05:43:35;100036.56;;;22.26;55.50
21706;BME280;11014;53.076;18.208;2023-07-28T05:46:04;100031.56;;;22.28;55.42
21706;BME280;11014;53.076;18.208;2023-07-28T05:48:36;100030.28;;;22.34;55.10
21706;BME280;11014;53.076;18.208;2023-07-28T05:51:04;100029.13;;;22.35;55.49
21706;BME280;11014;53.076;18.208;2023-07-28T05:53:35;100028.84;;;22.28;56.88
21706;BME280;11014;53.076;18.208;2023-07-28T05:56:06;100031.88;;;22.27;56.11
21706;BME280;11014;53.076;18.208;2023-07-28T05:58:35;100036.69;;;22.30;56.11
21706;BME280;11014;53.076;18.208;2023-07-28T06:01:03;100023.19;;;22.33;56.22
21706;BME280;11014;53.076;18.208;2023-07-28T06:04:04;100015.16;;;22.37;56.04
21706;BME280;11014;53.076;18.208;2023-07-28T06:06:40;100019.81;;;22.36;56.22
21706;BME280;11014;53.076;18.208;2023-07-28T06:09:10;100018.19;;;22.35;56.30
21706;BME280;11014;53.076;18.208;2023-07-28T06:11:39;100020.47;;;22.33;56.55
21706;BME280;11014;53.076;18.208;2023-07-28T06:14:08;100025.63;;;22.26;57.17
21706;BME280;11014;53.076;18.208;2023-07-28T06:16:37;100019.16;;;22.22;56.70
21706;BME280;11014;53.076;18.208;2023-07-28T06:19:06;100018.53;;;22.25;56.71
21706;BME280;11014;53.076;18.208;2023-07-28T06:21:38;100024.31;;;22.32;56.39
21706;BME280;11014;53.076;18.208;2023-07-28T06:24:06;100021.44;;;22.37;56.37
21706;BME280;11014;53.076;18.208;2023-07-28T06:26:37;100018.34;;;22.39;56.86
21706;BME280;11014;53.076;18.208;2023-07-28T06:29:05;100025.13;;;22.41;56.49
21706;BME280;11014;53.076;18.208;2023-07-28T06:31:34;100020.13;;;22.43;56.27
21706;BME280;11014;53.076;18.208;2023-07-28T06:34:04;100027.22;;;22.44;56.14
21706;BME280;11014;53.076;18.208;2023-07-28T06:36:36;100025.59;;;22.43;56.92
21706;BME280;11014;53.076;18.208;2023-07-28T06:39:06;100020.94;;;22.35;57.63
21706;BME280;11014;53.076;18.208;2023-07-28T06:41:34;100027.53;;;22.34;56.92
21706;BME280;11014;53.076;18.208;2023-07-28T06:44:08;100023.03;;;22.38;56.77
21706;BME280;11014;53.076;18.208;2023-07-28T06:46:37;100023.34;;;22.46;56.70
21706;BME280;11014;53.076;18.208;2023-07-28T06:49:07;100032.84;;;22.48;56.70
21706;BME280;11014;53.076;18.208;2023-07-28T06:51:35;100028.19;;;22.49;56.55
21706;BME280;11014;53.076;18.208;2023-07-28T06:54:04;100031.41;;;22.51;56.89
21706;BME280;11014;53.076;18.208;2023-07-28T06:56:32;100027.50;;;22.52;56.85
21706;BME280;11014;53.076;18.208;2023-07-28T06:59:02;100018.66;;;22.46;57.02
21706;BME280;11014;53.076;18.208;2023-07-28T07:01:42;100014.97;;;22.51;56.82
21706;BME280;11014;53.076;18.208;2023-07-28T07:04:11;100007.41;;;22.56;56.78
21706;BME280;11014;53.076;18.208;2023-07-28T07:06:39;99998.22;;;22.61;57.02
21706;BME280;11014;53.076;18.208;2023-07-28T07:09:08;99980.53;;;22.67;57.17
21706;BME280;11014;53.076;18.208;2023-07-28T07:11:37;99975.16;;;22.79;56.53
21706;BME280;11014;53.076;18.208;2023-07-28T07:14:06;99969.00;;;22.90;56.99
21706;BME280;11014;53.076;18.208;2023-07-28T07:16:34;99984.28;;;23.00;57.20
21706;BME280;11014;53.076;18.208;2023-07-28T07:19:09;99983.44;;;23.08;57.09
21706;BME280;11014;53.076;18.208;2023-07-28T07:21:37;99996.44;;;23.20;57.25
21706;BME280;11014;53.076;18.208;2023-07-28T07:24:06;100003.22;;;23.22;57.02
21706;BME280;11014;53.076;18.208;2023-07-28T07:26:34;100004.00;;;23.23;57.01
21706;BME280;11014;53.076;18.208;2023-07-28T07:29:05;100015.09;;;23.26;57.13
21706;BME280;11014;53.076;18.208;2023-07-28T07:31:33;100004.81;;;23.23;57.62
21706;BME280;11014;53.076;18.208;2023-07-28T07:34:02;100004.06;;;23.14;57.40
21706;BME280;11014;53.076;18.208;2023-07-28T07:36:35;100001.00;;;23.07;58.57
21706;BME280;11014;53.076;18.208;2023-07-28T07:39:04;100010.53;;;23.01;58.88
21706;BME280;11014;53.076;18.208;2023-07-28T07:41:33;100002.19;;;22.97;58.88
21706;BME280;11014;53.076;18.208;2023-07-28T07:44:02;100006.50;;;22.98;58.84
21706;BME280;11014;53.076;18.208;2023-07-28T07:46:31;100007.44;;;23.11;59.02
21706;BME280;11014;53.076;18.208;2023-07-28T07:49:00;100014.81;;;23.19;58.36
21706;BME280;11014;53.076;18.208;2023-07-28T07:51:28;100011.91;;;23.24;58.02
21706;BME280;11014;53.076;18.208;2023-07-28T07:53:57;100018.19;;;23.25;58.70
21706;BME280;11014;53.076;18.208;2023-07-28T07:56:25;100015.75;;;23.23;58.26
21706;BME280;11014;53.076;18.208;2023-07-28T07:58:54;100019.47;;;23.27;58.39
21706;BME280;11014;53.076;18.208;2023-07-28T08:01:22;100018.97;;;23.25;59.11
21706;BME280;11014;53.076;18.208;2023-07-28T08:03:51;100013.50;;;23.25;58.44
21706;BME280;11014;53.076;18.208;2023-07-28T08:06:19;100008.00;;;23.25;59.04
21706;BME280;11014;53.076;18.208;2023-07-28T08:08:48;100005.13;;;23.30;58.41
21706;BME280;11014;53.076;18.208;2023-07-28T08:11:19;100010.06;;;23.37;58.52
21706;BME280;11014;53.076;18.208;2023-07-28T08:13:47;100007.81;;;23.39;58.96
21706;BME280;11014;53.076;18.208;2023-07-28T08:16:17;100012.53;;;23.38;58.68
21706;BME280;11014;53.076;18.208;2023-07-28T08:18:45;100003.44;;;23.46;58.71
21706;BME280;11014;53.076;18.208;2023-07-28T08:21:14;100002.91;;;23.53;58.49
21706;BME280;11014;53.076;18.208;2023-07-28T08:23:43;100004.47;;;23.63;58.23
21706;BME280;11014;53.076;18.208;2023-07-28T08:26:11;100001.81;;;23.75;58.28
21706;BME280;11014;53.076;18.208;2023-07-28T08:28:40;100011.00;;;23.79;58.28
21706;BME280;11014;53.076;18.208;2023-07-28T08:31:08;100007.59;;;23.82;58.38
21706;BME280;11014;53.076;18.208;2023-07-28T08:33:37;100002.22;;;23.85;58.59
21706;BME280;11014;53.076;18.208;2023-07-28T08:36:05;100003.50;;;23.88;58.71
21706;BME280;11014;53.076;18.208;2023-07-28T08:38:34;100006.06;;;23.93;58.45
21706;BME280;11014;53.076;18.208;2023-07-28T08:41:03;100009.25;;;23.95;58.71
21706;BME280;11014;53.076;18.208;2023-07-28T08:43:31;100003.91;;;23.98;58.61
21706;BME280;11014;53.076;18.208;2023-07-28T08:46:00;100011.28;;;24.06;58.56
21706;BME280;11014;53.076;18.208;2023-07-28T08:48:29;100013.28;;;24.18;58.77
21706;BME280;11014;53.076;18.208;2023-07-28T08:50:58;100013.81;;;24.32;58.54
21706;BME280;11014;53.076;18.208;2023-07-28T08:53:27;100001.19;;;24.40;58.42
21706;BME280;11014;53.076;18.208;2023-07-28T08:55:57;99998.69;;;24.47;58.31
21706;BME280;11014;53.076;18.208;2023-07-28T08:58:26;99995.72;;;24.52;58.21
21706;BME280;11014;53.076;18.208;2023-07-28T09:00:54;100002.53;;;24.66;58.10
21706;BME280;11014;53.076;18.208;2023-07-28T09:03:23;99997.56;;;24.81;58.14
21706;BME280;11014;53.076;18.208;2023-07-28T09:06:01;99997.66;;;24.84;57.98
21706;BME280;11014;53.076;18.208;2023-07-28T09:08:30;99997.13;;;24.91;57.88
21706;BME280;11014;53.076;18.208;2023-07-28T09:11:01;99997.34;;;24.98;57.73
21706;BME280;11014;53.076;18.208;2023-07-28T09:13:39;99995.09;;;25.00;57.79
21706;BME280;11014;53.076;18.208;2023-07-28T09:16:18;100000.59;;;25.00;57.53
21706;BME280;11014;53.076;18.208;2023-07-28T09:18:48;99995.88;;;25.00;57.42
21706;BME280;11014;53.076;18.208;2023-07-28T09:21:17;99997.13;;;25.03;57.41
21706;BME280;11014;53.076;18.208;2023-07-28T09:23:47;100000.81;;;25.07;57.19
21706;BME280;11014;53.076;18.208;2023-07-28T09:26:16;99996.81;;;25.04;57.26
21706;BME280;11014;53.076;18.208;2023-07-28T09:28:44;99995.75;;;25.09;57.45
21706;BME280;11014;53.076;18.208;2023-07-28T09:31:14;99997.16;;;25.15;57.36
21706;BME280;11014;53.076;18.208;2023-07-28T09:33:42;99986.28;;;25.18;57.88
21706;BME280;11014;53.076;18.208;2023-07-28T09:36:16;99981.03;;;25.13;58.36
21706;BME280;11014;53.076;18.208;2023-07-28T09:38:44;99983.06;;;25.04;58.63
21706;BME280;11014;53.076;18.208;2023-07-28T09:41:13;99984.78;;;24.97;59.18
21706;BME280;11014;53.076;18.208;2023-07-28T09:43:42;99988.22;;;24.94;59.06
21706;BME280;11014;53.076;18.208;2023-07-28T09:46:12;99986.81;;;24.88;59.11
21706;BME280;11014;53.076;18.208;2023-07-28T09:48:45;99987.03;;;24.83;59.26
21706;BME280;11014;53.076;18.208;2023-07-28T09:51:17;99987.50;;;24.85;59.36
21706;BME280;11014;53.076;18.208;2023-07-28T09:54:04;99984.28;;;24.83;59.49
21706;BME280;11014;53.076;18.208;2023-07-28T09:56:34;99985.78;;;24.80;59.30
21706;BME280;11014;53.076;18.208;2023-07-28T09:59:04;99979.13;;;24.81;59.22
21706;BME280;11014;53.076;18.208;2023-07-28T10:01:35;99974.88;;;24.84;59.65
21706;BME280;11014;53.076;18.208;2023-07-28T10:04:04;99977.63;;;24.84;59.52
21706;BME280;11014;53.076;18.208;2023-07-28T10:06:34;99972.84;;;24.81;59.54
21706;BME280;11014;53.076;18.208;2023-07-28T10:09:04;99974.22;;;24.87;59.36
21706;BME280;11014;53.076;18.208;2023-07-28T10:11:34;99975.94;;;24.91;59.68
21706;BME280;11014;53.076;18.208;2023-07-28T10:14:03;99971.63;;;25.02;59.25
21706;BME280;11014;53.076;18.208;2023-07-28T10:16:38;99967.38;;;25.17;59.45
21706;BME280;11014;53.076;18.208;2023-07-28T10:19:07;99965.31;;;25.26;59.58
21706;BME280;11014;53.076;18.208;2023-07-28T10:21:40;99963.94;;;25.32;59.29
21706;BME280;11014;53.076;18.208;2023-07-28T10:24:11;99965.53;;;25.45;58.96
21706;BME280;11014;53.076;18.208;2023-07-28T10:26:41;99964.66;;;25.53;59.83
21706;BME280;11014;53.076;18.208;2023-07-28T10:29:11;99967.41;;;25.53;59.38
21706;BME280;11014;53.076;18.208;2023-07-28T10:31:50;99957.97;;;25.42;59.96
21706;BME280;11014;53.076;18.208;2023-07-28T10:34:19;99964.84;;;25.36;60.20
21706;BME280;11014;53.076;18.208;2023-07-28T10:36:59;99966.69;;;25.32;60.24
21706;BME280;11014;53.076;18.208;2023-07-28T10:39:29;99966.47;;;25.37;60.43
21706;BME280;11014;53.076;18.208;2023-07-28T10:42:05;99961.19;;;25.44;60.34
21706;BME280;11014;53.076;18.208;2023-07-28T10:44:36;99963.03;;;25.52;60.21
21706;BME280;11014;53.076;18.208;2023-07-28T10:47:08;99965.56;;;25.57;60.45
21706;BME280;11014;53.076;18.208;2023-07-28T10:49:37;99963.38;;;25.63;60.22
21706;BME280;11014;53.076;18.208;2023-07-28T10:52:07;99961.19;;;25.68;60.40
21706;BME280;11014;53.076;18.208;2023-07-28T10:54:36;99962.78;;;25.69;60.45
21706;BME280;11014;53.076;18.208;2023-07-28T10:57:04;99969.41;;;25.68;60.73
21706;BME280;11014;53.076;18.208;2023-07-28T10:59:35;99964.28;;;25.67;61.20
21706;BME280;11014;53.076;18.208;2023-07-28T11:02:04;99973.53;;;25.74;60.96
21706;BME280;11014;53.076;18.208;2023-07-28T11:04:32;99970.09;;;25.89;60.29
21706;BME280;11014;53.076;18.208;2023-07-28T11:07:01;99977.69;;;26.20;60.72
21706;BME280;11014;53.076;18.208;2023-07-28T11:09:29;99970.59;;;26.47;60.98
21706;BME280;11014;53.076;18.208;2023-07-28T11:11:59;99976.28;;;26.54;59.22
21706;BME280;11014;53.076;18.208;2023-07-28T11:14:30;99982.00;;;26.61;59.65
21706;BME280;11014;53.076;18.208;2023-07-28T11:16:58;99981.38;;;26.68;59.34
21706;BME280;11014;53.076;18.208;2023-07-28T11:19:27;99976.50;;;26.61;59.02
21706;BME280;11014;53.076;18.208;2023-07-28T11:21:56;99984.09;;;26.52;59.13
21706;BME280;11014;53.076;18.208;2023-07-28T11:24:26;99988.25;;;26.46;60.02
21706;BME280;11014;53.076;18.208;2023-07-28T11:26:56;100004.75;;;26.30;60.40
21706;BME280;11014;53.076;18.208;2023-07-28T11:29:26;99997.88;;;26.12;60.55
21706;BME280;11014;53.076;18.208;2023-07-28T11:31:56;99991.59;;;26.00;60.38
21706;BME280;11014;53.076;18.208;2023-07-28T11:34:25;99987.03;;;25.91;60.62
21706;BME280;11014;53.076;18.208;2023-07-28T11:36:54;99990.84;;;25.87;60.48
21706;BME280;11014;53.076;18.208;2023-07-28T11:39:23;99988.88;;;25.87;60.31
21706;BME280;11014;53.076;18.208;2023-07-28T11:41:54;99991.63;;;25.87;60.32
21706;BME280;11014;53.076;18.208;2023-07-28T11:44:23;99990.72;;;25.83;60.63
21706;BME280;11014;53.076;18.208;2023-07-28T11:46:52;99992.34;;;25.84;61.38
21706;BME280;11014;53.076;18.208;2023-07-28T11:49:23;99985.75;;;26.01;62.36
21706;BME280;11014;53.076;18.208;2023-07-28T11:51:53;99986.06;;;26.24;62.67
21706;BME280;11014;53.076;18.208;2023-07-28T11:54:22;99992.25;;;26.48;62.29
21706;BME280;11014;53.076;18.208;2023-07-28T11:56:54;99988.13;;;26.70;62.55
21706;BME280;11014;53.076;18.208;2023-07-28T11:59:22;99987.13;;;27.06;62.80
21706;BME280;11014;53.076;18.208;2023-07-28T12:01:55;99985.59;;;27.40;60.39
21706;BME280;11014;53.076;18.208;2023-07-28T12:04:27;99994.34;;;27.42;57.79
21706;BME280;11014;53.076;18.208;2023-07-28T12:07:09;99994.34;;;27.26;59.39
21706;BME280;11014;53.076;18.208;2023-07-28T12:12:17;99993.63;;;27.45;57.59
21706;BME280;11014;53.076;18.208;2023-07-28T12:14:49;100003.41;;;27.58;57.70
21706;BME280;11014;53.076;18.208;2023-07-28T12:17:25;100008.44;;;27.72;57.39
21706;BME280;11014;53.076;18.208;2023-07-28T12:20:16;99998.69;;;27.93;57.10
21706;BME280;11014;53.076;18.208;2023-07-28T12:22:47;99994.47;;;27.99;57.35
21706;BME280;11014;53.076;18.208;2023-07-28T12:25:16;99989.28;;;28.33;57.64
21706;BME280;11014;53.076;18.208;2023-07-28T12:27:48;99990.31;;;28.63;56.44
21706;BME280;11014;53.076;18.208;2023-07-28T12:30:16;99996.06;;;28.96;54.81
21706;BME280;11014;53.076;18.208;2023-07-28T12:32:45;99991.06;;;29.51;53.72
21706;BME280;11014;53.076;18.208;2023-07-28T12:35:17;99990.47;;;29.64;52.01
21706;BME280;11014;53.076;18.208;2023-07-28T12:37:47;100004.75;;;29.21;51.90
21706;BME280;11014;53.076;18.208;2023-07-28T12:40:18;99998.41;;;28.56;52.74
21706;BME280;11014;53.076;18.208;2023-07-28T12:42:50;99999.88;;;28.50;53.93
21706;BME280;11014;53.076;18.208;2023-07-28T12:45:22;100007.97;;;27.85;54.42
21706;BME280;11014;53.076;18.208;2023-07-28T12:47:54;100003.53;;;27.81;55.29
21706;BME280;11014;53.076;18.208;2023-07-28T12:50:25;100014.78;;;28.07;55.48
21706;BME280;11014;53.076;18.208;2023-07-28T12:52:54;100020.22;;;28.80;53.78
21706;BME280;11014;53.076;18.208;2023-07-28T12:55:26;100015.53;;;30.01;50.92
21706;BME280;11014;53.076;18.208;2023-07-28T12:57:56;100009.13;;;30.57;47.55
21706;BME280;11014;53.076;18.208;2023-07-28T13:00:26;100018.00;;;31.53;46.27
21706;BME280;11014;53.076;18.208;2023-07-28T13:02:57;100016.66;;;32.74;43.60
21706;BME280;11014;53.076;18.208;2023-07-28T13:05:26;100020.66;;;34.11;42.64
21706;BME280;11014;53.076;18.208;2023-07-28T13:07:55;100024.38;;;35.32;39.69
21706;BME280;11014;53.076;18.208;2023-07-28T13:10:26;100021.44;;;36.28;37.28
21706;BME280;11014;53.076;18.208;2023-07-28T13:12:58;100013.50;;;36.56;35.50
21706;BME280;11014;53.076;18.208;2023-07-28T13:15:26;100008.72;;;37.33;35.42
21706;BME280;11014;53.076;18.208;2023-07-28T13:17:55;100013.63;;;37.76;33.62